Main page
METAR-TAF:

METAR-TAF

Airports :

Samedan Airport

St. Moritz, Switzerland

latitude: 46-32-03N, longitude: 9-53-03E, elevation: 1707 m

Current weather observation

The report was made 31 minutes ago, at 15:20 UTC
Wind 3 kt from the West
Temperature 8°C
Humidity 27%
Pressure 1019 hPa
Visibility 10 km or more
no clouds below 1500 m and no cumulonimbus

METAR: LSZS 041520Z AUTO 27003KT CAVOK 08/M10 Q1019

Time: 17:51 (15:51 UTC)

Forecast

The report was made 1 hour and 26 minutes ago, at 14:25 UTC
Forecast valid from 04 at 15 UTC to 04 at 24 UTC
Wind 1 kt from variable directions
Visibility 10 km or more
no clouds below 1500 m and no cumulonimbus

TAF: LSZS 041425Z 0415/0424 VRB01KT CAVOK TX07/0415Z

Weather observations and forecasts of more than 4000 airports (METAR and TAF reports).

The available stations are represented by yellow and red dots on the map.

Hover mouse over dot to see the name of the station.

Then click to see weather observations and forecasts.

To change the map : click on the green buttons with a black cross to zoom in, on the green button with a dash to zoom out, or on the green arrows for adjacent maps.


METAR-TAF: